createdAt,value
2016-12-05T00:00:42.080Z,73.62
2016-12-05T00:01:51.988Z,73.62
2016-12-05T00:03:01.468Z,73.62
2016-12-05T00:04:10.979Z,73.33
2016-12-05T00:05:20.462Z,73.81
2016-12-05T00:06:30.237Z,73.9
2016-12-05T00:07:39.714Z,74
2016-12-05T00:08:49.576Z,74.09
2016-12-05T00:09:59.356Z,74
2016-12-05T00:11:08.845Z,74.09
2016-12-05T00:12:18.635Z,74
2016-12-05T00:13:28.135Z,74.57
2016-12-05T00:14:37.713Z,74.66
2016-12-05T00:15:47.531Z,74.28
2016-12-05T00:16:57.312Z,74.19
2016-12-05T00:18:07.083Z,74.09
2016-12-05T00:19:16.863Z,73.81
2016-12-05T00:20:26.663Z,74
2016-12-05T00:21:36.469Z,73.81
2016-12-05T00:22:46.331Z,74.09
2016-12-05T00:23:56.270Z,74.09
2016-12-05T00:25:05.784Z,73.81
2016-12-05T00:26:15.856Z,74
2016-12-05T00:27:25.337Z,74.47
2016-12-05T00:28:34.802Z,74.38
2016-12-05T00:29:44.007Z,74.09
2016-12-05T00:30:53.169Z,74.47
2016-12-05T00:32:02.342Z,74.66
2016-12-05T00:33:11.599Z,74.28
2016-12-05T00:34:21.437Z,74.47
2016-12-05T00:35:31.237Z,74.38
2016-12-05T00:36:40.797Z,74.19
2016-12-05T00:37:50.680Z,74.28
2016-12-05T00:39:00.465Z,74.19
2016-12-05T00:40:09.935Z,74.57
2016-12-05T00:41:19.716Z,74.57
2016-12-05T00:42:29.497Z,74.57
2016-12-05T00:43:39.282Z,74.57
2016-12-05T00:44:49.062Z,74.38
2016-12-05T00:45:58.604Z,74.95
2016-12-05T00:47:08.096Z,74.76
2016-12-05T00:48:17.642Z,75.04
2016-12-05T00:49:27.102Z,74.95
2016-12-05T00:50:36.614Z,75.13
2016-12-05T00:51:46.109Z,74.66
2016-12-05T00:52:55.615Z,74.85
2016-12-05T00:54:05.304Z,74.57
2016-12-05T00:55:14.835Z,74.09
2016-12-05T00:56:24.307Z,74.38
2016-12-05T00:57:33.473Z,74.19
2016-12-05T00:58:43.252Z,74.47
2016-12-05T00:59:53.045Z,74.09
2016-12-05T01:01:02.516Z,74.38
2016-12-05T01:02:11.979Z,74.47
2016-12-05T01:03:21.824Z,74.57
2016-12-05T01:04:31.625Z,74.47
2016-12-05T01:05:41.540Z,74.38
2016-12-05T01:06:51.331Z,74.09
2016-12-05T01:08:01.169Z,74.38
2016-12-05T01:09:10.955Z,74.66
2016-12-05T01:10:20.725Z,74.28
2016-12-05T01:11:30.520Z,74.47
2016-12-05T01:12:39.396Z,74.57
2016-12-05T01:13:48.875Z,74.38
2016-12-05T01:14:58.750Z,74.38
2016-12-05T01:16:08.658Z,74.66
2016-12-05T01:17:18.431Z,74.19
2016-12-05T01:18:28.219Z,74.57
2016-12-05T01:19:37.723Z,74.57
2016-12-05T01:20:47.203Z,74.76
2016-12-05T01:21:57.001Z,74.57
2016-12-05T01:23:06.824Z,74.85
2016-12-05T01:24:16.601Z,74.66
2016-12-05T01:25:26.145Z,75.04
2016-12-05T01:26:36.021Z,75.23
2016-12-05T01:27:45.811Z,75.23
2016-12-05T01:28:55.280Z,74.95
2016-12-05T01:30:04.739Z,75.04
2016-12-05T01:31:14.706Z,75.04
2016-12-05T01:32:24.161Z,75.7
2016-12-05T01:33:33.942Z,75.51
2016-12-05T01:34:43.690Z,75.32
2016-12-05T01:35:53.539Z,75.42
2016-12-05T01:37:02.722Z,75.42
2016-12-05T01:38:12.508Z,75.32
2016-12-05T01:39:21.986Z,75.32
2016-12-05T01:40:31.456Z,75.23
2016-12-05T01:41:41.297Z,75.04
2016-12-05T01:42:51.065Z,75.13
2016-12-05T01:44:00.887Z,75.04
2016-12-05T01:45:10.683Z,75.23
2016-12-05T01:46:20.558Z,75.13
2016-12-05T01:47:30.338Z,74.95
2016-12-05T01:48:40.167Z,74.76
2016-12-05T01:49:49.317Z,74.76
2016-12-05T01:50:58.784Z,75.23
2016-12-05T01:52:08.267Z,75.23
2016-12-05T01:53:17.791Z,75.04
2016-12-05T01:54:27.599Z,75.04
2016-12-05T01:55:37.070Z,75.28
2016-12-05T01:56:46.604Z,75.47
2016-12-05T01:57:56.404Z,75.47
2016-12-05T01:59:05.875Z,75.6
2016-12-05T02:00:15.440Z,75.28
2016-12-05T02:01:24.625Z,75.23
2016-12-05T02:02:34.117Z,75.23
2016-12-05T02:03:44.085Z,75.32
2016-12-05T02:04:53.900Z,75.32
2016-12-05T02:06:03.732Z,75.32
2016-12-05T02:07:13.530Z,75.13
2016-12-05T02:08:23.334Z,75.32
2016-12-05T02:09:33.134Z,75.32
2016-12-05T02:10:42.914Z,75.42
2016-12-05T02:11:52.425Z,75.42
2016-12-05T02:13:02.202Z,75.42
2016-12-05T02:14:12.281Z,75.04
2016-12-05T02:15:22.148Z,74.85
2016-12-05T02:16:31.791Z,75.04
2016-12-05T02:17:40.998Z,74.76
2016-12-05T02:18:50.804Z,74.85
2016-12-05T02:20:00.640Z,75.04
2016-12-05T02:21:10.483Z,75.04
2016-12-05T02:22:19.965Z,75.13
2016-12-05T02:23:29.428Z,75.6
2016-12-05T02:24:39.242Z,75.04
2016-12-05T02:25:48.418Z,75.23
2016-12-05T02:26:57.903Z,74.95
2016-12-05T02:28:07.726Z,75.13
2016-12-05T02:29:17.032Z,75.04
2016-12-05T02:30:26.811Z,75.7
2016-12-05T02:31:36.307Z,74.95
2016-12-05T02:32:45.776Z,74.95
2016-12-05T02:33:55.587Z,75.13
2016-12-05T02:35:05.383Z,75.04
2016-12-05T02:36:15.150Z,75.23
2016-12-05T02:37:24.920Z,75.04
2016-12-05T02:38:34.459Z,75.23
2016-12-05T02:39:43.652Z,74.95
2016-12-05T02:40:53.447Z,75.04
2016-12-05T02:42:03.279Z,74.95
2016-12-05T02:43:13.136Z,74.95
2016-12-05T02:44:22.320Z,75.23
2016-12-05T02:45:31.473Z,74.76
2016-12-05T02:46:41.240Z,74.66
2016-12-05T02:47:50.716Z,74.95
2016-12-05T02:49:00.203Z,74.95
2016-12-05T02:50:10.018Z,75.04
2016-12-05T02:51:19.821Z,74.76
2016-12-05T02:52:29.294Z,74.57
2016-12-05T02:53:39.070Z,74.66
2016-12-05T02:54:48.977Z,74.76
2016-12-05T02:55:58.763Z,74.66
2016-12-05T02:57:08.017Z,74.85
2016-12-05T02:58:17.842Z,74.85
2016-12-05T02:59:27.634Z,74.57
2016-12-05T03:00:37.427Z,74.76
2016-12-05T03:01:47.205Z,74.47
2016-12-05T03:02:56.987Z,74.47
2016-12-05T03:04:06.786Z,74.28
2016-12-05T03:05:16.600Z,74.57
2016-12-05T03:06:26.390Z,74.47
2016-12-05T03:07:36.173Z,74.38
2016-12-05T03:08:45.644Z,74.57
2016-12-05T03:09:55.443Z,74.85
2016-12-05T03:11:05.269Z,74.34
2016-12-05T03:12:15.122Z,74.57
2016-12-05T03:13:24.921Z,74.81
2016-12-05T03:14:34.752Z,74.43
2016-12-05T03:15:44.644Z,74.53
2016-12-05T03:16:54.457Z,74.24
2016-12-05T03:18:03.925Z,74.53
2016-12-05T03:19:13.405Z,74.62
2016-12-05T03:20:23.197Z,74.62
2016-12-05T03:21:32.670Z,74.71
2016-12-05T03:22:42.457Z,75
2016-12-05T03:23:52.236Z,74.9
2016-12-05T03:25:02.031Z,75.09
2016-12-05T03:26:11.826Z,75.09
2016-12-05T03:27:21.317Z,75.38
2016-12-05T03:28:31.104Z,75.38
2016-12-05T03:29:40.886Z,75.38
2016-12-05T03:30:50.686Z,75.47
2016-12-05T03:32:00.498Z,75.32
2016-12-05T03:33:09.956Z,74.95
2016-12-05T03:34:19.748Z,75.04
2016-12-05T03:35:29.567Z,75.04
2016-12-05T03:36:39.177Z,74.76
2016-12-05T03:37:48.629Z,74.76
2016-12-05T03:38:57.823Z,74.57
2016-12-05T03:40:07.302Z,74.57
2016-12-05T03:41:16.780Z,74.85
2016-12-05T03:42:26.592Z,74.47
2016-12-05T03:43:36.060Z,74.09
2016-12-05T03:44:45.543Z,73.9
2016-12-05T03:45:55.052Z,74
2016-12-05T03:47:04.818Z,73.9
2016-12-05T03:48:14.582Z,74.09
2016-12-05T03:49:24.373Z,74.09
2016-12-05T03:50:34.186Z,74.09
2016-12-05T03:51:43.363Z,73.9
2016-12-05T03:52:53.182Z,74
2016-12-05T03:54:02.975Z,74.28
2016-12-05T03:55:12.774Z,74
2016-12-05T03:56:22.592Z,74.19
2016-12-05T03:57:32.359Z,74
2016-12-05T03:58:42.138Z,74.09
2016-12-05T03:59:51.909Z,74.24
2016-12-05T04:01:01.383Z,74.05
2016-12-05T04:02:10.952Z,74.05
2016-12-05T04:03:20.751Z,73.86
2016-12-05T04:04:30.217Z,74.43
2016-12-05T04:05:40.192Z,74.71
2016-12-05T04:06:50.044Z,74.71
2016-12-05T04:07:59.836Z,74.34
2016-12-05T04:09:09.616Z,74.81
2016-12-05T04:10:19.126Z,74.43
2016-12-05T04:11:28.982Z,74.43
2016-12-05T04:12:38.466Z,74.53
2016-12-05T04:13:47.965Z,74.71
2016-12-05T04:14:57.901Z,74.9
2016-12-05T04:16:06.778Z,74.9
2016-12-05T04:17:16.232Z,74.85
2016-12-05T04:18:25.778Z,74.76
2016-12-05T04:19:35.574Z,74.66
2016-12-05T04:20:45.057Z,74.57
2016-12-05T04:21:54.833Z,74.57
2016-12-05T04:23:04.598Z,74.38
2016-12-05T04:24:14.133Z,73.81
2016-12-05T04:25:23.611Z,74.19
2016-12-05T04:26:33.386Z,73.71
2016-12-05T04:27:43.150Z,73.81
2016-12-05T04:28:52.922Z,73.62
2016-12-05T04:30:02.419Z,73.33
2016-12-05T04:31:12.201Z,73.77
2016-12-05T04:32:21.680Z,73.77
2016-12-05T04:33:31.472Z,73.77
2016-12-05T04:34:40.695Z,74.05
2016-12-05T04:35:50.578Z,73.77
2016-12-05T04:37:00.393Z,73.77
2016-12-05T04:38:09.865Z,73.77
2016-12-05T04:39:19.332Z,73.68
2016-12-05T04:40:29.135Z,73.58
2016-12-05T04:41:38.291Z,73.86
2016-12-05T04:42:48.210Z,73.68
2016-12-05T04:43:57.696Z,73.68
2016-12-05T04:45:07.464Z,73.3
2016-12-05T04:46:16.956Z,73.68
2016-12-05T04:47:26.730Z,73.3
2016-12-05T04:48:36.229Z,73.58
2016-12-05T04:49:46.003Z,73.58
2016-12-05T04:50:55.519Z,73.96
2016-12-05T04:52:05.465Z,73.68
2016-12-05T04:53:14.945Z,73.58
2016-12-05T04:54:24.719Z,73.77
2016-12-05T04:55:33.897Z,73.58
2016-12-05T04:56:43.358Z,73.58
2016-12-05T04:57:53.129Z,73.96
2016-12-05T04:59:02.597Z,73.58
2016-12-05T05:00:12.058Z,73.68
2016-12-05T05:01:21.847Z,73.58
2016-12-05T05:02:31.676Z,73.39
2016-12-05T05:03:41.453Z,73.24
2016-12-05T05:04:51.223Z,73.14
2016-12-05T05:06:00.693Z,73.14
2016-12-05T05:07:10.234Z,72.96
2016-12-05T05:08:19.474Z,72.77
2016-12-05T05:09:29.241Z,72.86
2016-12-05T05:10:38.927Z,72.58
2016-12-05T05:11:48.402Z,72.64
2016-12-05T05:12:57.581Z,72.45
2016-12-05T05:14:07.392Z,72.45
2016-12-05T05:15:16.889Z,72.55
2016-12-05T05:16:26.442Z,72.73
2016-12-05T05:17:36.281Z,72.26
2016-12-05T05:18:45.796Z,72.26
2016-12-05T05:19:55.559Z,72.45
2016-12-05T05:21:05.145Z,72.64
2016-12-05T05:22:14.643Z,72.45
2016-12-05T05:23:24.160Z,72.73
2016-12-05T05:24:33.931Z,72.73
2016-12-05T05:25:43.736Z,72.55
2016-12-05T05:26:52.973Z,73.02
2016-12-05T05:28:02.795Z,73.02
2016-12-05T05:29:12.291Z,73.11
2016-12-05T05:30:22.087Z,73.02
2016-12-05T05:31:31.274Z,72.73
2016-12-05T05:32:41.115Z,72.36
2016-12-05T05:33:50.710Z,72.36
2016-12-05T05:35:00.511Z,72.36
2016-12-05T05:36:10.333Z,72.17
2016-12-05T05:37:19.843Z,72.64
2016-12-05T05:38:29.813Z,72.64
2016-12-05T05:39:39.275Z,72.26
2016-12-05T05:40:49.073Z,72.17
2016-12-05T05:41:58.880Z,72.17
2016-12-05T05:43:07.773Z,72.17
2016-12-05T05:44:17.238Z,71.98
2016-12-05T05:45:26.707Z,72.36
2016-12-05T05:46:35.908Z,72.45
2016-12-05T05:47:45.688Z,72.83
2016-12-05T05:48:55.453Z,72.73
2016-12-05T05:50:05.237Z,72.55
2016-12-05T05:51:15.009Z,72.45
2016-12-05T05:52:24.160Z,73.02
2016-12-05T05:53:33.635Z,73.17
2016-12-05T05:54:43.137Z,73.07
2016-12-05T05:55:52.999Z,73.64
2016-12-05T05:57:02.495Z,73.77
2016-12-05T05:58:12.276Z,74.05
2016-12-05T05:59:21.431Z,73.96
2016-12-05T06:00:30.908Z,74.24
2016-12-05T06:01:40.749Z,73.86
2016-12-05T06:02:50.725Z,73.39
2016-12-05T06:04:00.560Z,73.58
2016-12-05T06:05:09.714Z,73.86
2016-12-05T06:06:19.541Z,73.58
2016-12-05T06:07:29.327Z,73.77
2016-12-05T06:08:38.788Z,73.77
2016-12-05T06:09:48.592Z,73.39
2016-12-05T06:10:58.387Z,73.3
2016-12-05T06:12:08.192Z,73.11
2016-12-05T06:13:17.644Z,73.11
2016-12-05T06:14:26.823Z,72.92
2016-12-05T06:15:36.310Z,72.83
2016-12-05T06:16:46.133Z,72.92
2016-12-05T06:17:55.610Z,73.11
2016-12-05T06:19:05.090Z,73.02
2016-12-05T06:20:14.926Z,72.92
2016-12-05T06:21:24.745Z,73.21
2016-12-05T06:22:34.373Z,72.92
2016-12-05T06:23:43.530Z,73.02
2016-12-05T06:24:53.134Z,72.92
2016-12-05T06:26:02.607Z,72.83
2016-12-05T06:27:12.062Z,72.64
2016-12-05T06:28:21.531Z,72.83
2016-12-05T06:29:31.339Z,72.64
2016-12-05T06:30:40.808Z,72.64
2016-12-05T06:31:49.645Z,72.45
2016-12-05T06:32:59.527Z,72.64
2016-12-05T06:34:09.341Z,73.02
2016-12-05T06:35:19.145Z,72.73
2016-12-05T06:36:28.935Z,72.83
2016-12-05T06:37:38.186Z,72.73
2016-12-05T06:38:47.665Z,73.39
2016-12-05T06:39:57.137Z,72.83
2016-12-05T06:41:06.639Z,73.02
2016-12-05T06:42:16.415Z,72.64
2016-12-05T06:43:25.949Z,72.64
2016-12-05T06:44:35.412Z,72.17
2016-12-05T06:45:44.906Z,72.36
2016-12-05T06:46:54.706Z,72.07
2016-12-05T06:48:04.525Z,72.26
2016-12-05T06:49:13.992Z,72.26
2016-12-05T06:50:23.781Z,72.17
2016-12-05T06:51:33.256Z,72.26
2016-12-05T06:52:43.066Z,71.98
2016-12-05T06:53:52.859Z,71.88
2016-12-05T06:55:02.623Z,71.69
2016-12-05T06:56:12.422Z,71.6
2016-12-05T06:57:22.022Z,71.6
2016-12-05T06:58:31.518Z,71.69
2016-12-05T06:59:41.291Z,71.69
2016-12-05T07:00:50.778Z,71.88
2016-12-05T07:02:00.598Z,71.6
2016-12-05T07:03:10.447Z,71.98
2016-12-05T07:04:20.254Z,71.98
2016-12-05T07:05:30.030Z,72.07
2016-12-05T07:06:39.550Z,71.69
2016-12-05T07:07:49.401Z,71.88
2016-12-05T07:08:58.983Z,71.6
2016-12-05T07:10:08.438Z,72.17
2016-12-05T07:11:18.402Z,72.17
2016-12-05T07:12:27.888Z,72.26
2016-12-05T07:13:37.935Z,72.26
2016-12-05T07:14:47.488Z,71.69
2016-12-05T07:15:57.503Z,71.88
2016-12-05T07:17:07.000Z,72.26
2016-12-05T07:18:16.448Z,72.26
2016-12-05T07:19:25.922Z,71.88
2016-12-05T07:20:35.760Z,71.79
2016-12-05T07:21:45.541Z,71.6
2016-12-05T07:22:55.335Z,71.6
2016-12-05T07:24:05.114Z,71.6
2016-12-05T07:25:14.954Z,71.12
2016-12-05T07:26:24.750Z,71.22
2016-12-05T07:27:34.324Z,71.22
2016-12-05T07:28:44.103Z,71.41
2016-12-05T07:29:53.900Z,71.41
2016-12-05T07:31:03.737Z,71.88
2016-12-05T07:32:13.563Z,71.22
2016-12-05T07:33:23.039Z,71.12
2016-12-05T07:34:32.844Z,70.94
2016-12-05T07:35:42.617Z,71.03
2016-12-05T07:36:52.516Z,70.65
2016-12-05T07:38:01.984Z,70.75
2016-12-05T07:39:11.783Z,70.56
2016-12-05T07:40:21.019Z,70.37
2016-12-05T07:41:30.800Z,70.47
2016-12-05T07:42:40.268Z,70
2016-12-05T07:43:50.088Z,70.37
2016-12-05T07:44:59.555Z,70.47
2016-12-05T07:46:09.030Z,70
2016-12-05T07:47:19.021Z,70.37
2016-12-05T07:48:28.525Z,70.28
2016-12-05T07:49:37.676Z,70.37
2016-12-05T07:50:47.459Z,70.28
2016-12-05T07:51:56.950Z,70.37
2016-12-05T07:53:06.768Z,70.37
2016-12-05T07:54:16.287Z,70.56
2016-12-05T07:55:26.061Z,70.47
2016-12-05T07:56:35.873Z,70.28
2016-12-05T07:57:45.350Z,70.18
2016-12-05T07:58:54.872Z,70.28
2016-12-05T08:00:04.666Z,69.71
2016-12-05T08:01:14.458Z,70.37
2016-12-05T08:02:23.616Z,70.09
2016-12-05T08:03:33.529Z,69.71
2016-12-05T08:04:43.007Z,69.43
2016-12-05T08:05:52.501Z,69.24
2016-12-05T08:07:02.507Z,69.43
2016-12-05T08:08:12.103Z,69.52
2016-12-05T08:09:21.888Z,69.33
2016-12-05T08:10:31.365Z,69.24
2016-12-05T08:11:41.177Z,69.43
2016-12-05T08:12:50.640Z,69.24
2016-12-05T08:14:00.183Z,69.24
2016-12-05T08:15:09.653Z,69.33
2016-12-05T08:16:19.625Z,68.76
2016-12-05T08:17:29.470Z,69.09
2016-12-05T08:18:38.336Z,68.99
2016-12-05T08:19:47.494Z,68.99
2016-12-05T08:20:57.278Z,69.09
2016-12-05T08:22:07.128Z,68.52
2016-12-05T08:23:16.806Z,68.42
2016-12-05T08:24:26.636Z,68.71
2016-12-05T08:25:36.110Z,68.42
2016-12-05T08:26:46.160Z,68.42
2016-12-05T08:27:55.970Z,68.04
2016-12-05T08:29:05.840Z,67.76
2016-12-05T08:30:15.606Z,67.85
2016-12-05T08:31:25.080Z,67.47
2016-12-05T08:32:34.257Z,67.66
2016-12-05T08:33:43.792Z,67.57
2016-12-05T08:34:53.633Z,67.29
2016-12-05T08:36:03.177Z,66.91
2016-12-05T08:37:12.950Z,67.29
2016-12-05T08:38:22.725Z,67.32
2016-12-05T08:39:32.520Z,67.29
2016-12-05T08:40:42.341Z,66.44
2016-12-05T08:42:23.965Z,66.63
2016-12-05T08:43:33.804Z,66.35
2016-12-05T08:44:43.588Z,66.53
2016-12-05T08:45:53.127Z,66.25
2016-12-05T08:47:02.894Z,66.38
2016-12-05T08:48:12.686Z,66.66
2016-12-05T08:49:22.258Z,66.38
2016-12-05T08:50:32.043Z,66.19
2016-12-05T08:51:41.524Z,65.72
2016-12-05T08:52:51.299Z,65.53
2016-12-05T08:54:01.103Z,65.81
2016-12-05T08:55:10.902Z,65.81
2016-12-05T08:56:20.374Z,66.09
2016-12-05T08:57:29.877Z,65.72
2016-12-05T08:58:39.672Z,65.62
2016-12-05T08:59:49.491Z,65.72
2016-12-05T09:00:59.374Z,65.72
2016-12-05T09:02:09.186Z,65.62
2016-12-05T09:03:18.664Z,65.72
2016-12-05T09:04:28.429Z,65.81
2016-12-05T09:05:37.725Z,65.15
2016-12-05T09:06:47.687Z,65.15
2016-12-05T09:07:57.650Z,65.15
2016-12-05T09:09:07.475Z,65.15
2016-12-05T09:10:17.263Z,64.96
2016-12-05T09:11:27.056Z,65.15
2016-12-05T09:12:36.545Z,65.24
2016-12-05T09:13:45.721Z,65.15
2016-12-05T09:14:55.517Z,64.77
2016-12-05T09:16:05.291Z,65.15
2016-12-05T09:17:15.080Z,65.05
2016-12-05T09:18:24.857Z,64.96
2016-12-05T09:19:34.369Z,65.15
2016-12-05T09:20:43.836Z,65.15
2016-12-05T09:21:53.654Z,65.34
2016-12-05T09:23:03.145Z,65.53
2016-12-05T09:24:12.617Z,65.05
2016-12-05T09:25:22.099Z,65.43
2016-12-05T09:26:31.869Z,65.62
2016-12-05T09:27:41.687Z,65.05
2016-12-05T09:28:51.151Z,65.05
2016-12-05T09:30:00.610Z,65.81
2016-12-05T09:31:10.458Z,65.15
2016-12-05T09:32:20.281Z,65.62
2016-12-05T09:33:29.854Z,65.81
2016-12-05T09:34:39.397Z,65.15
2016-12-05T09:35:49.183Z,65.34
2016-12-05T09:36:58.971Z,65.81
2016-12-05T09:38:08.757Z,65.62
2016-12-05T09:39:18.260Z,65.62
2016-12-05T09:40:28.086Z,65.62
2016-12-05T09:41:37.248Z,65.53
2016-12-05T09:42:46.119Z,66.19
2016-12-05T09:43:55.901Z,65.62
2016-12-05T09:45:05.733Z,65.62
2016-12-05T09:46:15.535Z,65.72
2016-12-05T09:47:24.706Z,65.05
2016-12-05T09:48:34.512Z,64.23
2016-12-05T09:49:44.294Z,64.07
2016-12-05T09:50:54.131Z,63.13
2016-12-05T09:52:03.607Z,62.02
2016-12-05T09:53:13.396Z,60.54
2016-12-05T09:54:22.946Z,59.41
2016-12-05T09:55:32.751Z,57.73
2016-12-05T09:56:42.221Z,57.19
2016-12-05T09:57:52.013Z,55.86
2016-12-05T09:59:01.821Z,54.85
2016-12-05T10:00:11.619Z,53.7
2016-12-05T10:01:21.430Z,53.52
2016-12-05T10:02:31.219Z,52.59
2016-12-05T10:03:41.126Z,52.22
2016-12-05T10:04:50.595Z,50.91
2016-12-05T10:06:00.059Z,50.24
2016-12-05T10:07:09.900Z,48.63
2016-12-05T10:08:19.713Z,48.27
2016-12-05T10:09:29.528Z,48.46
2016-12-05T10:10:39.369Z,47.71
2016-12-05T10:11:49.148Z,47.33
2016-12-05T10:12:58.386Z,46.2
2016-12-05T10:14:08.332Z,45.64
2016-12-05T10:15:18.095Z,44.59
2016-12-05T10:16:27.275Z,44.4
2016-12-05T10:17:36.530Z,43.83
2016-12-05T10:18:46.409Z,42.69
2016-12-05T10:19:56.249Z,42.4
2016-12-05T10:21:06.106Z,42.12
2016-12-05T10:22:15.941Z,41.74
2016-12-05T10:23:25.729Z,42.31
2016-12-05T10:24:35.263Z,41.19
2016-12-05T10:25:44.732Z,41.28
2016-12-05T10:26:53.594Z,41.19
2016-12-05T10:28:03.181Z,41.28
2016-12-05T10:29:12.399Z,40.9
2016-12-05T10:30:21.582Z,40.43
2016-12-05T10:31:31.104Z,39.87
2016-12-05T10:32:40.614Z,39.5
2016-12-05T10:33:50.528Z,39.21
2016-12-05T10:35:00.352Z,38.73
2016-12-05T10:36:09.826Z,38.92
2016-12-05T10:37:19.460Z,38.83
2016-12-05T10:38:29.255Z,38.17
2016-12-05T10:39:39.066Z,37.78
2016-12-05T10:40:48.865Z,37.02
2016-12-05T10:41:58.362Z,36.74
2016-12-05T10:43:07.944Z,36.93
2016-12-05T10:44:17.726Z,36.74
2016-12-05T10:45:27.349Z,36.74
2016-12-05T10:46:37.164Z,36.74
2016-12-05T10:47:46.967Z,36.76
2016-12-05T10:48:56.476Z,36.76
2016-12-05T10:50:06.434Z,36.66
2016-12-05T10:51:15.930Z,36.18
2016-12-05T10:52:25.766Z,36.28
2016-12-05T10:53:35.305Z,35.99
2016-12-05T10:54:45.118Z,35.82
2016-12-05T10:55:54.914Z,35.63
2016-12-05T10:57:04.708Z,35.91
2016-12-05T10:58:14.210Z,34.77
2016-12-05T10:59:24.074Z,34.77
2016-12-05T11:00:33.868Z,34.48
2016-12-05T11:01:43.727Z,34.39
2016-12-05T11:02:53.542Z,34.58
2016-12-05T11:04:03.047Z,34.96
2016-12-05T11:05:12.913Z,34.87
2016-12-05T11:06:22.442Z,34.67
2016-12-05T11:07:31.930Z,34.48
2016-12-05T11:08:41.522Z,34.6
2016-12-05T11:09:51.320Z,34.5
2016-12-05T11:11:01.130Z,34.79
2016-12-05T11:12:10.891Z,34.41
2016-12-05T11:13:20.690Z,34.12
2016-12-05T11:14:30.500Z,34.12
2016-12-05T11:15:40.308Z,34.12
2016-12-05T11:16:49.862Z,33.74
2016-12-05T11:17:59.749Z,33.84
2016-12-05T11:19:09.569Z,33.84
2016-12-05T11:20:19.063Z,33.74
2016-12-05T11:21:28.927Z,34.12
2016-12-05T11:22:37.794Z,33.84
2016-12-05T11:23:47.731Z,33.91
2016-12-05T11:24:57.557Z,34.01
2016-12-05T11:26:07.022Z,34.01
2016-12-05T11:27:16.827Z,34.3
2016-12-05T11:28:26.017Z,34.39
2016-12-05T11:29:35.509Z,34.67
2016-12-05T11:30:44.728Z,35.06
2016-12-05T11:31:54.537Z,35.15
2016-12-05T11:33:04.043Z,35.33
2016-12-05T11:34:13.274Z,35.33
2016-12-05T11:35:23.083Z,35.8
2016-12-05T11:36:32.891Z,35.99
2016-12-05T11:37:42.791Z,36.28
2016-12-05T11:38:52.645Z,36.18
2016-12-05T11:40:02.296Z,36.18
2016-12-05T11:41:11.499Z,36.16
2016-12-05T11:42:21.078Z,36.08
2016-12-05T11:43:30.346Z,36.16
2016-12-05T11:44:40.163Z,36.18
2016-12-05T11:45:50.108Z,36.18
2016-12-05T11:46:59.907Z,36.18
2016-12-05T11:48:09.407Z,36.18
2016-12-05T11:49:19.212Z,36.16
2016-12-05T11:50:29.014Z,36.64
2016-12-05T11:51:38.494Z,36.93
2016-12-05T11:52:48.041Z,36.93
2016-12-05T11:53:57.569Z,36.74
2016-12-05T11:55:07.361Z,36.83
2016-12-05T11:56:16.872Z,37.48
2016-12-05T11:57:26.357Z,37.86
2016-12-05T11:58:35.862Z,38.05
2016-12-05T11:59:45.805Z,39.17
2016-12-05T12:00:55.365Z,39.07
2016-12-05T12:02:04.862Z,40.1
2016-12-05T12:03:14.064Z,40.2
2016-12-05T12:04:23.539Z,40.48
2016-12-05T12:05:33.014Z,40.84
2016-12-05T12:06:42.828Z,41.31
2016-12-05T12:07:52.656Z,41.79
2016-12-05T12:09:02.464Z,41.86
2016-12-05T12:10:12.355Z,42.34
2016-12-05T12:11:22.182Z,42.82
2016-12-05T12:12:31.987Z,43.74
2016-12-05T12:13:41.785Z,43.74
2016-12-05T12:14:51.265Z,44.21
2016-12-05T12:16:00.737Z,44.79
2016-12-05T12:17:10.239Z,45.17
2016-12-05T12:18:20.034Z,45.43
2016-12-05T12:19:29.838Z,45.9
2016-12-05T12:20:39.635Z,46.19
2016-12-05T12:21:49.418Z,46.66
2016-12-05T12:22:59.245Z,46.85
2016-12-05T12:24:08.414Z,46.94
2016-12-05T12:25:17.909Z,47.99
2016-12-05T12:26:27.452Z,47.99
2016-12-05T12:27:37.276Z,48.08
2016-12-05T12:28:47.066Z,48.25
2016-12-05T12:29:56.853Z,48.63
2016-12-05T12:31:06.320Z,49.19
2016-12-05T12:32:15.509Z,49.01
2016-12-05T12:33:25.003Z,49.76
2016-12-05T12:34:34.823Z,49.48
2016-12-05T12:35:44.621Z,49.38
2016-12-05T12:36:54.426Z,50.05
2016-12-05T12:38:03.899Z,50.15
2016-12-05T12:39:13.396Z,50.15
2016-12-05T12:40:23.200Z,50.71
2016-12-05T12:41:32.458Z,50.81
2016-12-05T12:42:42.305Z,51.09
2016-12-05T12:43:51.823Z,51.57
2016-12-05T12:45:01.553Z,51.47
2016-12-05T12:46:11.354Z,51.66
2016-12-05T12:47:20.826Z,51.95
2016-12-05T12:48:30.426Z,52.2
2016-12-05T12:49:40.253Z,52.29
2016-12-05T12:50:50.300Z,52.77
2016-12-05T12:51:59.847Z,52.48
2016-12-05T12:53:09.403Z,52.77
2016-12-05T12:54:19.203Z,53.15
2016-12-05T12:55:29.018Z,53.72
2016-12-05T12:56:38.821Z,53.81
2016-12-05T12:57:48.614Z,53.72
2016-12-05T12:58:58.484Z,54.19
2016-12-05T13:00:08.584Z,54
2016-12-05T13:01:18.105Z,53.63
2016-12-05T13:02:28.071Z,53.91
2016-12-05T13:03:37.577Z,53.72
2016-12-05T13:04:47.381Z,53.81
2016-12-05T13:05:56.871Z,54.1
2016-12-05T13:07:06.384Z,54.19
2016-12-05T13:08:15.581Z,54.28
2016-12-05T13:09:25.405Z,54.28
2016-12-05T13:10:35.231Z,54.19
2016-12-05T13:11:45.039Z,54.19
2016-12-05T13:12:54.903Z,54.19
2016-12-05T13:14:04.714Z,54.28
2016-12-05T13:15:14.549Z,54.28
2016-12-05T13:16:24.604Z,54.57
2016-12-05T13:17:34.428Z,54.95
2016-12-05T13:18:44.544Z,54.67
2016-12-05T13:19:54.336Z,54.86
2016-12-05T13:21:04.115Z,54.67
2016-12-05T13:22:13.945Z,55.14
2016-12-05T13:23:23.518Z,55.05
2016-12-05T13:24:33.328Z,55.14
2016-12-05T13:25:43.226Z,54.95
2016-12-05T13:26:53.075Z,55.71
2016-12-05T13:28:02.876Z,56.09
2016-12-05T13:29:12.388Z,55.9
2016-12-05T13:30:21.923Z,56.18
2016-12-05T13:31:31.778Z,56.66
2016-12-05T13:32:41.277Z,56.56
2016-12-05T13:33:51.104Z,56.85
2016-12-05T13:35:01.003Z,57.42
2016-12-05T13:36:10.618Z,57.51
2016-12-05T13:37:20.149Z,57.89
2016-12-05T13:38:29.631Z,57.89
2016-12-05T13:39:39.624Z,57.89
2016-12-05T13:40:49.125Z,57.89
2016-12-05T13:41:58.984Z,57.7
2016-12-05T13:43:08.791Z,58.07
2016-12-05T13:44:18.598Z,57.76
2016-12-05T13:45:28.420Z,58.05
2016-12-05T13:46:38.240Z,58.05
2016-12-05T13:47:47.769Z,58.24
2016-12-05T13:48:57.289Z,58.24
2016-12-05T13:50:06.788Z,58.36
2016-12-05T13:51:16.602Z,57.6
2016-12-05T13:52:26.522Z,57.79
2016-12-05T13:53:36.434Z,57.79
2016-12-05T13:54:46.269Z,57.89
2016-12-05T13:55:56.116Z,57.79
2016-12-05T13:57:05.926Z,57.7
2016-12-05T13:58:15.433Z,57.79
2016-12-05T13:59:25.336Z,58.07
2016-12-05T14:00:35.155Z,57.89
2016-12-05T14:01:45.014Z,57.89
2016-12-05T14:02:54.838Z,57.98
2016-12-05T14:04:04.540Z,58.17
2016-12-05T14:05:14.333Z,58.36
2016-12-05T14:06:23.828Z,58.45
2016-12-05T14:07:33.444Z,58.55
2016-12-05T14:08:43.051Z,58.36
2016-12-05T14:09:52.560Z,58.55
2016-12-05T14:11:02.196Z,59.03
2016-12-05T14:12:11.672Z,59.03
2016-12-05T14:13:21.563Z,58.74
2016-12-05T14:14:31.076Z,58.93
2016-12-05T14:15:40.939Z,59.5
2016-12-05T14:16:50.505Z,59.41
2016-12-05T14:18:00.024Z,59.31
2016-12-05T14:19:09.524Z,59.22
2016-12-05T14:20:19.026Z,59.31
2016-12-05T14:21:28.829Z,59.78
2016-12-05T14:22:38.335Z,59.47
2016-12-05T14:23:47.826Z,59.56
2016-12-05T14:24:57.318Z,59.41
2016-12-05T14:26:06.531Z,59.59
2016-12-05T14:27:16.023Z,59.5
2016-12-05T14:28:25.943Z,60.03
2016-12-05T14:29:35.469Z,60.64
2016-12-05T14:30:44.977Z,60.32
2016-12-05T14:31:54.495Z,60.7
2016-12-05T14:33:03.982Z,60.7
2016-12-05T14:34:13.542Z,60.99
2016-12-05T14:35:23.326Z,60.99
2016-12-05T14:36:32.837Z,61.08
2016-12-05T14:37:42.061Z,61.27
2016-12-05T14:38:51.878Z,61.08
2016-12-05T14:40:01.753Z,61.55
2016-12-05T14:41:11.555Z,61.83
2016-12-05T14:42:21.041Z,61.46
2016-12-05T14:43:30.239Z,61.74
2016-12-05T14:44:39.825Z,61.46
2016-12-05T14:45:49.701Z,61.46
2016-12-05T14:46:59.183Z,61.93
2016-12-05T14:48:08.968Z,61.83
2016-12-05T14:49:18.499Z,62.02
2016-12-05T14:50:28.277Z,62.12
2016-12-05T14:51:37.747Z,62.31
2016-12-05T14:52:47.547Z,62.78
2016-12-05T14:53:57.356Z,62.78
2016-12-05T14:55:06.577Z,62.59
2016-12-05T14:56:16.081Z,62.69
2016-12-05T14:57:26.119Z,62.69
2016-12-05T14:58:35.905Z,63.07
2016-12-05T14:59:45.696Z,63.07
2016-12-05T15:00:55.470Z,63.54